createdAt,value
2022-11-16T00:00:33.568Z,11.10
2022-11-16T00:03:04.818Z,11.20
2022-11-16T00:05:43.614Z,11.20
2022-11-16T00:08:10.603Z,11.20
2022-11-16T00:10:37.709Z,11.20
2022-11-16T00:13:11.511Z,11.20
2022-11-16T00:15:38.967Z,11.20
2022-11-16T00:18:18.497Z,11.20
2022-11-16T00:20:52.548Z,11.20
2022-11-16T00:23:24.418Z,11.20
2022-11-16T00:25:59.549Z,11.20
2022-11-16T00:28:34.229Z,11.20
2022-11-16T00:31:12.614Z,11.20
2022-11-16T00:33:43.657Z,11.20
2022-11-16T00:36:12.104Z,11.20
2022-11-16T00:38:46.562Z,11.20
2022-11-16T00:41:26.580Z,11.20
2022-11-16T00:43:53.356Z,11.20
2022-11-16T00:46:26.541Z,11.20
2022-11-16T00:48:53.629Z,11.20
2022-11-16T00:51:26.656Z,11.20
2022-11-16T00:53:53.599Z,11.20
2022-11-16T00:56:20.382Z,11.20
2022-11-16T00:58:53.674Z,11.20
2022-11-16T01:01:20.514Z,11.20
2022-11-16T01:03:48.049Z,11.20
2022-11-16T01:06:22.616Z,11.20
2022-11-16T01:08:49.437Z,11.20
2022-11-16T01:11:42.613Z,11.20
2022-11-16T01:14:10.594Z,11.20
2022-11-16T01:16:37.445Z,11.30
2022-11-16T01:19:11.607Z,11.30
2022-11-16T01:21:38.401Z,11.20
2022-11-16T01:24:12.637Z,11.30
2022-11-16T01:26:39.575Z,11.20
2022-11-16T01:29:06.382Z,11.30
2022-11-16T01:31:39.754Z,11.30
2022-11-16T01:34:06.819Z,11.30
2022-11-16T01:36:35.420Z,11.30
2022-11-16T01:39:10.765Z,11.30
2022-11-16T01:41:37.613Z,11.30
2022-11-16T01:44:21.737Z,11.30
2022-11-16T01:46:54.844Z,11.30
2022-11-16T01:49:30.621Z,11.30
2022-11-16T01:52:04.801Z,11.30
2022-11-16T01:54:41.789Z,11.30
2022-11-16T01:57:12.383Z,11.30
2022-11-16T01:59:40.320Z,11.30
2022-11-16T02:02:13.645Z,11.30
2022-11-16T02:04:40.695Z,11.30
2022-11-16T02:08:07.697Z,11.30
2022-11-16T02:11:00.115Z,11.30
2022-11-16T02:13:52.723Z,11.40
2022-11-16T02:16:30.060Z,11.40
2022-11-16T02:19:34.812Z,11.40
2022-11-16T02:22:38.901Z,11.30
2022-11-16T02:25:45.680Z,11.30
2022-11-16T02:28:29.093Z,11.40
2022-11-16T02:31:06.738Z,11.30
2022-11-16T02:33:40.957Z,11.30
2022-11-16T02:36:18.742Z,11.30
2022-11-16T02:38:58.059Z,11.30
2022-11-16T02:41:34.823Z,11.30
2022-11-16T02:44:18.985Z,11.30
2022-11-16T02:46:56.735Z,11.30
2022-11-16T02:49:25.748Z,11.30
2022-11-16T02:52:00.728Z,11.30
2022-11-16T02:54:34.977Z,11.30
2022-11-16T02:57:04.773Z,11.40
2022-11-16T02:59:42.889Z,11.30
2022-11-16T03:02:31.830Z,11.30
2022-11-16T03:05:41.769Z,11.30
2022-11-16T03:08:33.998Z,11.30
2022-11-16T03:11:23.905Z,11.30
2022-11-16T03:13:58.842Z,11.30
2022-11-16T03:16:47.785Z,11.30
2022-11-16T03:19:24.850Z,11.30
2022-11-16T03:21:58.926Z,11.30
2022-11-16T03:24:32.872Z,11.30
2022-11-16T03:26:59.596Z,11.30
2022-11-16T03:30:12.886Z,11.20
2022-11-16T03:33:21.961Z,11.20
2022-11-16T03:36:06.924Z,11.20
2022-11-16T03:38:37.046Z,11.20
2022-11-16T03:41:14.967Z,11.20
2022-11-16T03:43:43.657Z,11.20
2022-11-16T03:46:10.554Z,11.10
2022-11-16T03:48:45.827Z,11.10
2022-11-16T03:51:13.072Z,11.10
2022-11-16T03:53:39.944Z,11.00
2022-11-16T03:56:13.859Z,11.00
2022-11-16T03:58:40.759Z,11.00
2022-11-16T04:01:07.754Z,10.90
2022-11-16T04:03:40.827Z,10.90
2022-11-16T04:06:27.381Z,10.90
2022-11-16T04:09:18.837Z,10.90
2022-11-16T04:12:03.982Z,10.90
2022-11-16T04:14:55.875Z,10.90
2022-11-16T04:17:43.723Z,10.80
2022-11-16T04:20:40.876Z,10.90
2022-11-16T04:23:31.717Z,10.90
2022-11-16T04:26:05.027Z,10.90
2022-11-16T04:28:34.860Z,10.90
2022-11-16T04:31:28.879Z,10.80
2022-11-16T04:34:28.111Z,10.80
2022-11-16T04:37:20.895Z,10.80
2022-11-16T04:39:47.592Z,10.80
2022-11-16T04:42:29.017Z,10.80
2022-11-16T04:45:14.511Z,10.80
2022-11-16T04:47:47.924Z,10.80
2022-11-16T04:50:14.969Z,10.70
2022-11-16T04:52:41.759Z,10.70
2022-11-16T04:55:15.917Z,10.70
2022-11-16T04:57:42.704Z,10.70
2022-11-16T05:00:23.011Z,10.60
2022-11-16T05:02:50.485Z,10.60
2022-11-16T05:05:17.806Z,10.60
2022-11-16T05:07:53.100Z,10.60
2022-11-16T05:10:19.866Z,10.60
2022-11-16T05:12:48.684Z,10.50
2022-11-16T05:15:23.950Z,10.50
2022-11-16T05:17:51.538Z,10.50
2022-11-16T05:20:45.022Z,10.50
2022-11-16T05:23:37.499Z,10.50
2022-11-16T05:26:10.979Z,10.40
2022-11-16T05:28:37.894Z,10.40
2022-11-16T05:31:11.063Z,10.40
2022-11-16T05:33:38.125Z,10.40
2022-11-16T05:36:05.128Z,10.40
2022-11-16T05:38:37.997Z,10.40
2022-11-16T05:41:05.919Z,10.50
2022-11-16T05:43:39.101Z,10.50
2022-11-16T05:46:06.061Z,10.50
2022-11-16T05:48:33.208Z,10.50
2022-11-16T05:51:07.002Z,10.50
2022-11-16T05:53:33.901Z,10.40
2022-11-16T05:56:00.823Z,10.40
2022-11-16T05:58:34.521Z,10.30
2022-11-16T06:01:01.553Z,10.30
2022-11-16T06:03:31.820Z,10.30
2022-11-16T06:06:05.143Z,10.30
2022-11-16T06:08:32.300Z,10.20
2022-11-16T06:11:03.622Z,10.20
2022-11-16T06:13:38.119Z,10.20
2022-11-16T06:16:06.263Z,10.10
2022-11-16T06:18:36.609Z,10.10
2022-11-16T06:21:10.071Z,10.00
2022-11-16T06:23:44.059Z,10.00
2022-11-16T06:26:11.460Z,10.00
2022-11-16T06:28:45.216Z,9.90
2022-11-16T06:31:12.516Z,9.90
2022-11-16T06:33:39.391Z,9.80
2022-11-16T06:36:13.073Z,9.80
2022-11-16T06:38:46.237Z,9.70
2022-11-16T06:41:13.143Z,9.70
2022-11-16T06:43:40.265Z,9.60
2022-11-16T06:46:14.075Z,9.60
2022-11-16T06:48:47.208Z,9.60
2022-11-16T06:51:14.098Z,9.50
2022-11-16T06:53:40.870Z,9.50
2022-11-16T06:56:14.118Z,9.40
2022-11-16T06:58:42.958Z,9.40
2022-11-16T07:01:18.235Z,9.30
2022-11-16T07:03:45.123Z,9.30
2022-11-16T07:06:20.215Z,9.30
2022-11-16T07:08:47.031Z,9.20
2022-11-16T07:11:13.879Z,9.20
2022-11-16T07:13:47.173Z,9.20
2022-11-16T07:16:20.158Z,9.20
2022-11-16T07:18:53.142Z,9.20
2022-11-16T07:21:20.139Z,9.10
2022-11-16T07:23:53.199Z,9.10
2022-11-16T07:26:27.141Z,9.10
2022-11-16T07:29:00.162Z,9.10
2022-11-16T07:31:34.193Z,9.00
2022-11-16T07:34:02.480Z,9.10
2022-11-16T07:36:36.176Z,9.10
2022-11-16T07:39:03.177Z,9.00
2022-11-16T07:41:36.231Z,9.10
2022-11-16T07:44:03.108Z,9.00
2022-11-16T07:46:47.519Z,9.00
2022-11-16T07:49:23.182Z,9.10
2022-11-16T07:51:50.038Z,9.00
2022-11-16T07:54:23.229Z,9.00
2022-11-16T07:56:57.187Z,9.00
2022-11-16T07:59:27.428Z,9.00
2022-11-16T08:02:02.444Z,9.00
2022-11-16T08:04:29.231Z,9.00
2022-11-16T08:06:56.128Z,9.00
2022-11-16T08:09:29.227Z,9.10
2022-11-16T08:11:56.257Z,9.00
2022-11-16T08:14:29.247Z,9.10
2022-11-16T08:16:56.658Z,9.00
2022-11-16T08:19:23.656Z,9.10
2022-11-16T08:21:57.335Z,9.00
2022-11-16T08:24:24.727Z,9.10
2022-11-16T08:27:01.257Z,9.10
2022-11-16T08:29:38.247Z,9.10
2022-11-16T08:32:05.018Z,9.10
2022-11-16T08:34:31.848Z,9.10
2022-11-16T08:37:05.276Z,9.10
2022-11-16T08:39:32.184Z,9.20
2022-11-16T08:42:06.316Z,9.20
2022-11-16T08:44:33.130Z,9.20
2022-11-16T08:47:10.314Z,9.20
2022-11-16T08:49:37.130Z,9.30
2022-11-16T08:52:11.335Z,9.30
2022-11-16T08:54:38.138Z,9.40
2022-11-16T08:57:17.317Z,9.40
2022-11-16T08:59:44.316Z,9.40
2022-11-16T09:02:11.353Z,9.50
2022-11-16T09:04:44.310Z,9.50
2022-11-16T09:07:11.325Z,9.50
2022-11-16T09:09:44.362Z,9.60
2022-11-16T09:12:11.228Z,9.60
2022-11-16T09:14:44.458Z,9.70
2022-11-16T09:17:11.337Z,9.70
2022-11-16T09:19:38.130Z,9.80
2022-11-16T09:22:12.543Z,9.80
2022-11-16T09:24:39.537Z,9.90
2022-11-16T09:27:13.349Z,9.90
2022-11-16T09:29:40.178Z,10.00
2022-11-16T09:32:15.391Z,10.00
2022-11-16T09:34:42.485Z,10.00
2022-11-16T09:37:16.551Z,10.10
2022-11-16T09:39:43.456Z,10.10
2022-11-16T09:42:44.376Z,10.10
2022-11-16T09:45:38.844Z,10.10
2022-11-16T09:48:18.384Z,10.20
2022-11-16T09:50:58.385Z,10.20
2022-11-16T09:53:49.199Z,10.20
2022-11-16T09:56:33.384Z,10.20
2022-11-16T09:59:29.402Z,10.20
2022-11-16T10:02:37.420Z,10.30
2022-11-16T10:05:24.416Z,10.40
2022-11-16T10:08:04.438Z,10.50
2022-11-16T10:10:45.433Z,10.50
2022-11-16T10:14:01.386Z,10.60
2022-11-16T10:17:03.406Z,10.70
2022-11-16T10:20:00.551Z,10.80
2022-11-16T10:22:57.431Z,11.00
2022-11-16T10:25:36.499Z,11.10
2022-11-16T10:28:28.473Z,11.20
2022-11-16T10:31:13.475Z,11.20
2022-11-16T10:33:44.229Z,11.10
2022-11-16T10:36:22.451Z,11.10
2022-11-16T10:38:49.360Z,11.30
2022-11-16T10:41:21.358Z,11.30
2022-11-16T10:43:55.462Z,11.40
2022-11-16T10:46:37.215Z,11.40
2022-11-16T10:49:22.462Z,11.40
2022-11-16T10:51:55.626Z,11.50
2022-11-16T10:54:29.499Z,11.60
2022-11-16T10:57:11.501Z,11.60
2022-11-16T10:59:44.668Z,11.50
2022-11-16T11:02:43.514Z,11.50
2022-11-16T11:05:20.865Z,11.60
2022-11-16T11:08:17.516Z,11.60
2022-11-16T11:10:50.528Z,11.70
2022-11-16T11:13:26.782Z,11.70
2022-11-16T11:16:20.570Z,11.70
2022-11-16T11:18:47.724Z,11.70
2022-11-16T11:21:28.518Z,11.60
2022-11-16T11:24:29.756Z,11.60
2022-11-16T11:26:54.083Z,11.70
2022-11-16T11:29:33.538Z,11.70
2022-11-16T11:32:05.201Z,11.60
2022-11-16T11:34:53.611Z,11.60
2022-11-16T11:37:37.229Z,11.60
2022-11-16T11:40:32.591Z,11.60
2022-11-16T11:43:02.719Z,11.60
2022-11-16T11:46:04.571Z,11.50
2022-11-16T11:48:56.587Z,11.50
2022-11-16T11:51:33.463Z,11.40
2022-11-16T11:54:09.561Z,11.50
2022-11-16T11:56:42.634Z,11.60
2022-11-16T11:59:22.636Z,11.60
2022-11-16T12:02:25.603Z,11.70
2022-11-16T12:05:28.197Z,11.70
2022-11-16T12:08:23.714Z,11.70
2022-11-16T12:11:25.184Z,11.80
2022-11-16T12:14:21.613Z,11.90
2022-11-16T12:17:11.747Z,12.00
2022-11-16T12:20:26.643Z,12.00
2022-11-16T12:23:24.691Z,12.10
2022-11-16T12:25:51.453Z,12.10
2022-11-16T12:28:51.204Z,12.10
2022-11-16T12:31:46.617Z,12.10
2022-11-16T12:34:32.069Z,12.10
2022-11-16T12:37:28.667Z,12.00
2022-11-16T12:40:19.499Z,11.90
2022-11-16T12:43:13.687Z,11.80
2022-11-16T12:45:50.765Z,11.70
2022-11-16T12:48:50.704Z,11.70
2022-11-16T12:51:44.736Z,11.70
2022-11-16T12:54:32.702Z,11.60
2022-11-16T12:57:20.773Z,11.50
2022-11-16T13:00:16.697Z,11.40
2022-11-16T13:03:24.709Z,11.40
2022-11-16T13:06:13.677Z,11.40
2022-11-16T13:08:49.622Z,11.70
2022-11-16T13:11:22.758Z,11.90
2022-11-16T13:13:55.353Z,11.90
2022-11-16T13:16:30.753Z,11.90
2022-11-16T13:19:05.724Z,11.80
2022-11-16T13:21:57.795Z,11.70
2022-11-16T13:24:33.191Z,11.60
2022-11-16T13:27:35.733Z,11.60
2022-11-16T13:30:27.842Z,11.70
2022-11-16T13:33:19.742Z,11.80
2022-11-16T13:35:46.630Z,11.90
2022-11-16T13:38:20.717Z,11.90
2022-11-16T13:40:53.770Z,12.00
2022-11-16T13:43:26.744Z,12.00
2022-11-16T13:45:57.617Z,11.90
2022-11-16T13:48:40.752Z,12.00
2022-11-16T13:51:22.728Z,12.00
2022-11-16T13:57:17.755Z,12.10
2022-11-16T13:59:51.791Z,12.00
2022-11-16T14:02:36.488Z,11.90
2022-11-16T14:05:18.831Z,11.80
2022-11-16T14:07:59.115Z,11.60
2022-11-16T14:10:41.911Z,11.50
2022-11-16T14:13:47.809Z,11.30
2022-11-16T14:16:21.353Z,11.30
2022-11-16T14:18:55.838Z,11.30
2022-11-16T14:21:30.818Z,11.40
2022-11-16T14:24:15.625Z,11.40
2022-11-16T14:27:10.848Z,11.40
2022-11-16T14:29:51.758Z,11.40
2022-11-16T14:32:42.643Z,11.40
2022-11-16T14:35:37.903Z,11.40
2022-11-16T14:38:28.549Z,11.40
2022-11-16T14:41:03.872Z,11.40
2022-11-16T14:43:40.485Z,11.30
2022-11-16T14:46:39.881Z,11.20
2022-11-16T14:49:20.877Z,11.00
2022-11-16T14:51:56.256Z,10.90
2022-11-16T14:54:52.845Z,10.80
2022-11-16T14:57:21.926Z,10.70
2022-11-16T14:59:49.313Z,10.70
2022-11-16T15:02:33.918Z,10.70
2022-11-16T15:05:01.257Z,10.70
2022-11-16T15:07:37.003Z,10.80
2022-11-16T15:10:04.234Z,10.90
2022-11-16T15:12:48.944Z,11.00
2022-11-16T15:15:28.893Z,11.00
2022-11-16T15:18:13.922Z,11.10
2022-11-16T15:20:49.902Z,11.10
2022-11-16T15:23:30.676Z,11.10
2022-11-16T15:26:06.930Z,11.10
2022-11-16T15:28:34.030Z,11.10
2022-11-16T15:31:11.207Z,11.10
2022-11-16T15:33:42.017Z,11.10
2022-11-16T15:36:43.930Z,10.90
2022-11-16T15:39:26.153Z,10.80
2022-11-16T15:42:03.992Z,10.60
2022-11-16T15:44:33.155Z,10.50
2022-11-16T15:47:10.024Z,10.30
2022-11-16T15:49:40.059Z,10.30
2022-11-16T15:52:07.152Z,10.20
2022-11-16T15:55:03.018Z,10.10
2022-11-16T15:57:36.984Z,10.10
2022-11-16T16:00:04.081Z,10.00
2022-11-16T16:02:32.567Z,9.90
2022-11-16T16:05:05.991Z,9.80
2022-11-16T16:07:46.986Z,9.80
2022-11-16T16:10:19.848Z,9.80
2022-11-16T16:13:03.991Z,9.80
2022-11-16T16:15:36.800Z,9.70
2022-11-16T16:18:18.008Z,9.70
2022-11-16T16:20:48.514Z,9.70
2022-11-16T16:23:23.008Z,9.60
2022-11-16T16:25:50.793Z,9.60
2022-11-16T16:28:24.095Z,9.60
2022-11-16T16:30:51.435Z,9.60
2022-11-16T16:33:29.007Z,9.50
2022-11-16T16:36:02.168Z,9.50
2022-11-16T16:38:29.686Z,9.40
2022-11-16T16:41:12.992Z,9.40
2022-11-16T16:43:46.012Z,9.40
2022-11-16T16:46:13.230Z,9.40
2022-11-16T16:48:47.083Z,9.40
2022-11-16T16:51:13.904Z,9.30
2022-11-16T16:53:47.024Z,9.30
2022-11-16T16:56:16.765Z,9.30
2022-11-16T16:58:50.058Z,9.20
2022-11-16T17:01:17.107Z,9.20
2022-11-16T17:03:50.092Z,9.20
2022-11-16T17:06:27.069Z,9.20
2022-11-16T17:09:00.096Z,9.20
2022-11-16T17:11:34.060Z,9.20
2022-11-16T17:14:01.596Z,9.20
2022-11-16T17:16:35.094Z,9.10
2022-11-16T17:19:02.582Z,9.10
2022-11-16T17:21:36.166Z,9.10
2022-11-16T17:24:03.075Z,9.10
2022-11-16T17:26:30.340Z,9.00
2022-11-16T17:29:05.144Z,9.00
2022-11-16T17:31:32.015Z,9.00
2022-11-16T17:33:58.855Z,9.00
2022-11-16T17:36:32.116Z,9.00
2022-11-16T17:39:05.148Z,9.00
2022-11-16T17:41:31.970Z,9.00
2022-11-16T17:44:05.175Z,8.90
2022-11-16T17:46:38.114Z,8.90
2022-11-16T17:49:04.902Z,8.90
2022-11-16T17:51:38.114Z,8.90
2022-11-16T17:54:05.294Z,8.90
2022-11-16T17:56:32.170Z,8.80
2022-11-16T17:59:05.126Z,8.80
2022-11-16T18:01:38.231Z,8.80
2022-11-16T18:04:05.055Z,8.80
2022-11-16T18:06:33.200Z,8.80
2022-11-16T18:09:07.155Z,8.70
2022-11-16T18:11:33.962Z,8.80
2022-11-16T18:14:08.167Z,8.80
2022-11-16T18:16:42.168Z,8.70
2022-11-16T18:19:09.943Z,8.80
2022-11-16T18:21:48.198Z,8.70
2022-11-16T18:24:15.022Z,8.70
2022-11-16T18:26:55.217Z,8.70
2022-11-16T18:29:22.242Z,8.70
2022-11-16T18:31:55.255Z,8.70
2022-11-16T18:34:29.262Z,8.70
2022-11-16T18:37:03.221Z,8.70
2022-11-16T18:39:30.958Z,8.70
2022-11-16T18:42:04.244Z,8.70
2022-11-16T18:44:37.188Z,8.70
2022-11-16T18:47:10.213Z,8.80
2022-11-16T18:49:37.559Z,8.80
2022-11-16T18:52:11.252Z,8.80
2022-11-16T18:54:38.084Z,8.90
2022-11-16T18:57:05.122Z,8.90
2022-11-16T18:59:38.278Z,8.90
2022-11-16T19:02:05.069Z,9.00
2022-11-16T19:04:41.229Z,9.00
2022-11-16T19:07:14.284Z,9.10
2022-11-16T19:09:41.245Z,9.10
2022-11-16T19:12:14.367Z,9.10
2022-11-16T19:14:41.253Z,9.20
2022-11-16T19:17:14.279Z,9.20
2022-11-16T19:19:47.294Z,9.20
2022-11-16T19:22:20.347Z,9.20
2022-11-16T19:24:47.129Z,9.20
2022-11-16T19:27:26.291Z,9.20
2022-11-16T19:29:53.290Z,9.20
2022-11-16T19:32:29.736Z,9.30
2022-11-16T19:34:56.534Z,9.30
2022-11-16T19:37:30.286Z,9.30
2022-11-16T19:39:57.325Z,9.40
2022-11-16T19:42:35.315Z,9.40
2022-11-16T19:45:02.177Z,9.40
2022-11-16T19:47:31.020Z,9.40
2022-11-16T19:50:04.311Z,9.40
2022-11-16T19:52:32.608Z,9.40
2022-11-16T19:55:12.337Z,9.40
2022-11-16T19:57:39.082Z,9.40
2022-11-16T20:00:06.510Z,9.30
2022-11-16T20:02:48.296Z,9.30
2022-11-16T20:05:15.585Z,9.30
2022-11-16T20:07:52.355Z,9.30
2022-11-16T20:10:19.230Z,9.30
2022-11-16T20:12:46.065Z,9.30
2022-11-16T20:15:19.368Z,9.30
2022-11-16T20:17:53.495Z,9.30
2022-11-16T20:20:27.346Z,9.30
2022-11-16T20:22:54.082Z,9.30
2022-11-16T20:25:27.433Z,9.30
2022-11-16T20:27:57.346Z,9.30
2022-11-16T20:30:30.483Z,9.30
2022-11-16T20:33:04.395Z,9.30
2022-11-16T20:35:39.379Z,9.30
2022-11-16T20:38:06.264Z,9.30
2022-11-16T20:40:39.403Z,9.30
2022-11-16T20:43:12.412Z,9.30
2022-11-16T20:45:39.199Z,9.30
2022-11-16T20:48:06.399Z,9.30
2022-11-16T20:50:39.414Z,9.30
2022-11-16T20:53:08.166Z,9.30
2022-11-16T20:55:34.994Z,9.40
2022-11-16T20:58:08.452Z,9.40
2022-11-16T21:00:41.442Z,9.40
2022-11-16T21:03:09.664Z,9.40
2022-11-16T21:05:53.528Z,9.40
2022-11-16T21:08:20.347Z,9.50
2022-11-16T21:10:54.494Z,9.40
2022-11-16T21:13:39.915Z,9.50
2022-11-16T21:16:17.479Z,9.50
2022-11-16T21:18:44.307Z,9.50
2022-11-16T21:21:19.409Z,9.50
2022-11-16T21:23:51.595Z,9.50
2022-11-16T21:26:27.482Z,9.50
2022-11-16T21:28:55.223Z,9.50
2022-11-16T21:31:32.485Z,9.60
2022-11-16T21:34:02.659Z,9.50
2022-11-16T21:36:31.619Z,9.60
2022-11-16T21:39:06.475Z,9.60
2022-11-16T21:41:33.897Z,9.60
2022-11-16T21:44:07.491Z,9.60
2022-11-16T21:46:40.493Z,9.60
2022-11-16T21:49:14.493Z,9.70
2022-11-16T21:51:41.453Z,9.70
2022-11-16T21:54:14.540Z,9.70
2022-11-16T21:56:41.562Z,9.70
2022-11-16T21:59:14.500Z,9.80
2022-11-16T22:01:59.364Z,9.70
2022-11-16T22:04:51.542Z,9.80
2022-11-16T22:07:33.601Z,9.80
2022-11-16T22:10:08.571Z,9.90
2022-11-16T22:12:35.666Z,9.90
2022-11-16T22:15:03.552Z,9.90
2022-11-16T22:17:37.534Z,9.90
2022-11-16T22:20:11.549Z,10.00
2022-11-16T22:22:38.319Z,9.90
2022-11-16T22:25:12.549Z,9.90
2022-11-16T22:28:05.620Z,9.90
2022-11-16T22:30:34.581Z,9.90
2022-11-16T22:33:01.509Z,9.80
2022-11-16T22:35:28.278Z,9.80
2022-11-16T22:38:02.577Z,9.80
2022-11-16T22:40:35.581Z,9.70
2022-11-16T22:43:02.544Z,9.70
2022-11-16T22:45:35.551Z,9.70
2022-11-16T22:48:06.577Z,9.60
2022-11-16T22:50:39.614Z,9.60
2022-11-16T22:53:12.604Z,9.60
2022-11-16T22:55:46.630Z,9.60
2022-11-16T22:58:15.997Z,9.50
2022-11-16T23:00:49.629Z,9.50
2022-11-16T23:03:17.808Z,9.50
2022-11-16T23:05:51.660Z,9.50
2022-11-16T23:08:24.775Z,9.50
2022-11-16T23:11:27.622Z,9.50
2022-11-16T23:14:13.276Z,9.50
2022-11-16T23:16:47.634Z,9.50
2022-11-16T23:19:35.345Z,9.50
2022-11-16T23:22:27.630Z,9.50
2022-11-16T23:25:13.154Z,9.50
2022-11-16T23:27:51.621Z,9.50
2022-11-16T23:30:18.695Z,9.50
2022-11-16T23:32:51.662Z,9.50
2022-11-16T23:35:25.670Z,9.50
2022-11-16T23:38:06.898Z,9.50
2022-11-16T23:40:45.699Z,9.50
2022-11-16T23:43:30.962Z,9.40
2022-11-16T23:46:04.822Z,9.50
2022-11-16T23:48:37.699Z,9.50
2022-11-16T23:51:10.674Z,9.50
2022-11-16T23:53:37.727Z,9.50
2022-11-16T23:56:11.682Z,9.50
2022-11-16T23:58:38.565Z,9.50
